createdAt,value
2023-12-10T00:02:28.686Z,0.20
2023-12-10T00:04:56.927Z,0.20
2023-12-10T00:07:24.975Z,0.20
2023-12-10T00:09:53.297Z,0.20
2023-12-10T00:12:21.432Z,0.20
2023-12-10T00:14:55.051Z,0.20
2023-12-10T00:17:24.236Z,0.20
2023-12-10T00:19:53.848Z,0.20
2023-12-10T00:22:22.145Z,0.20
2023-12-10T00:24:50.369Z,0.30
2023-12-10T00:27:18.697Z,0.30
2023-12-10T00:29:46.807Z,0.30
2023-12-10T00:32:15.040Z,0.30
2023-12-10T00:34:43.213Z,0.20
2023-12-10T00:37:12.751Z,0.20
2023-12-10T00:39:41.008Z,0.20
2023-12-10T00:42:09.420Z,0.20
2023-12-10T00:44:37.978Z,0.20
2023-12-10T00:47:06.482Z,0.30
2023-12-10T00:49:34.629Z,0.30
2023-12-10T00:52:03.893Z,0.20
2023-12-10T00:54:34.406Z,0.20
2023-12-10T00:57:02.740Z,0.30
2023-12-10T00:59:30.793Z,0.30
2023-12-10T01:02:00.240Z,0.30
2023-12-10T01:04:28.759Z,0.30
2023-12-10T01:06:57.000Z,0.30
2023-12-10T01:09:25.143Z,0.30
2023-12-10T01:11:54.815Z,0.30
2023-12-10T01:14:22.893Z,0.30
2023-12-10T01:16:50.971Z,0.30
2023-12-10T01:19:19.145Z,0.30
2023-12-10T01:21:48.242Z,0.20
2023-12-10T01:24:18.181Z,0.30
2023-12-10T01:26:46.333Z,0.30
2023-12-10T01:29:16.649Z,0.30
2023-12-10T01:31:44.784Z,0.30
2023-12-10T01:34:13.054Z,0.30
2023-12-10T01:36:41.300Z,0.30
2023-12-10T01:39:09.474Z,0.30
2023-12-10T01:41:37.547Z,0.30
2023-12-10T01:44:06.314Z,0.40
2023-12-10T01:46:35.754Z,0.40
2023-12-10T01:49:05.570Z,0.40
2023-12-10T01:51:33.948Z,0.40
2023-12-10T01:54:02.083Z,0.40
2023-12-10T01:56:31.492Z,0.40
2023-12-10T01:59:00.049Z,0.40
2023-12-10T02:01:29.008Z,0.40
2023-12-10T02:03:58.780Z,0.50
2023-12-10T02:06:27.071Z,0.50
2023-12-10T02:08:55.200Z,0.50
2023-12-10T02:11:23.730Z,0.50
2023-12-10T02:13:51.790Z,0.50
2023-12-10T02:16:19.995Z,0.50
2023-12-10T02:18:48.301Z,0.50
2023-12-10T02:21:18.434Z,0.50
2023-12-10T02:24:01.829Z,0.50
2023-12-10T02:26:32.090Z,0.50
2023-12-10T02:29:00.771Z,0.50
2023-12-10T02:31:28.933Z,0.50
2023-12-10T02:33:57.114Z,0.60
2023-12-10T02:36:25.260Z,0.50
2023-12-10T02:38:53.625Z,0.50
2023-12-10T02:41:21.743Z,0.50
2023-12-10T02:43:51.235Z,0.50
2023-12-10T02:46:19.385Z,0.50
2023-12-10T02:48:47.667Z,0.50
2023-12-10T02:51:16.007Z,0.50
2023-12-10T02:53:44.134Z,0.50
2023-12-10T02:56:12.202Z,0.50
2023-12-10T02:58:40.281Z,0.50
2023-12-10T03:01:10.211Z,0.60
2023-12-10T03:03:38.597Z,0.60
2023-12-10T03:06:08.543Z,0.60
2023-12-10T03:08:36.708Z,0.60
2023-12-10T03:11:04.872Z,0.60
2023-12-10T03:13:33.094Z,0.60
2023-12-10T03:16:01.236Z,0.60
2023-12-10T03:18:31.998Z,0.60
2023-12-10T03:21:00.281Z,0.60
2023-12-10T03:23:28.539Z,0.60
2023-12-10T03:25:56.600Z,0.60
2023-12-10T03:28:24.719Z,0.60
2023-12-10T03:30:53.092Z,0.60
2023-12-10T03:33:21.484Z,0.60
2023-12-10T03:35:51.159Z,0.60
2023-12-10T03:38:19.321Z,0.70
2023-12-10T03:40:47.367Z,0.60
2023-12-10T03:43:15.416Z,0.60
2023-12-10T03:45:43.753Z,0.70
2023-12-10T03:48:12.118Z,0.60
2023-12-10T03:50:40.248Z,0.70
2023-12-10T03:53:09.740Z,0.70
2023-12-10T03:55:37.804Z,0.70
2023-12-10T03:58:05.875Z,0.70
2023-12-10T04:00:34.492Z,0.70
2023-12-10T04:03:02.712Z,0.70
2023-12-10T04:05:31.017Z,0.70
2023-12-10T04:07:59.247Z,0.70
2023-12-10T04:10:28.659Z,0.70
2023-12-10T04:12:56.882Z,0.70
2023-12-10T04:15:25.081Z,0.80
2023-12-10T04:17:53.258Z,0.80
2023-12-10T04:20:21.502Z,0.80
2023-12-10T04:22:49.648Z,0.80
2023-12-10T04:25:18.275Z,0.80
2023-12-10T04:27:47.740Z,0.80
2023-12-10T04:30:16.553Z,0.80
2023-12-10T04:32:44.697Z,0.80
2023-12-10T04:35:12.794Z,0.80
2023-12-10T04:37:40.954Z,0.80
2023-12-10T04:40:12.005Z,0.80
2023-12-10T04:42:40.739Z,0.80
2023-12-10T04:45:11.350Z,0.80
2023-12-10T04:47:39.742Z,0.80
2023-12-10T04:50:09.323Z,0.80
2023-12-10T04:52:37.419Z,0.80
2023-12-10T04:55:06.394Z,0.80
2023-12-10T04:57:34.600Z,0.80
2023-12-10T05:00:05.060Z,0.80
2023-12-10T05:02:34.626Z,0.80
2023-12-10T05:05:02.685Z,0.80
2023-12-10T05:07:30.791Z,0.80
2023-12-10T05:09:59.153Z,0.80
2023-12-10T05:12:27.526Z,0.90
2023-12-10T05:14:55.961Z,0.80
2023-12-10T05:17:24.143Z,0.90
2023-12-10T05:19:53.645Z,0.90
2023-12-10T05:22:24.286Z,0.90
2023-12-10T05:24:53.839Z,0.90
2023-12-10T05:27:21.947Z,0.90
2023-12-10T05:29:50.303Z,0.90
2023-12-10T05:32:18.343Z,0.90
2023-12-10T05:34:46.535Z,0.90
2023-12-10T05:37:16.033Z,0.90
2023-12-10T05:39:44.150Z,0.90
2023-12-10T05:42:12.309Z,0.90
2023-12-10T05:44:40.374Z,0.90
2023-12-10T05:47:08.454Z,1.00
2023-12-10T05:49:36.702Z,0.90
2023-12-10T05:52:05.387Z,1.00
2023-12-10T05:54:34.893Z,1.00
2023-12-10T05:57:03.055Z,1.00
2023-12-10T05:59:31.162Z,0.90
2023-12-10T06:01:59.245Z,0.90
2023-12-10T06:04:27.693Z,0.90
2023-12-10T06:06:56.591Z,1.00
2023-12-10T06:09:25.394Z,1.00
2023-12-10T06:11:54.869Z,1.00
2023-12-10T06:14:23.046Z,0.90
2023-12-10T06:16:51.153Z,1.00
2023-12-10T06:19:19.351Z,1.00
2023-12-10T06:21:47.510Z,1.00
2023-12-10T06:24:15.669Z,1.00
2023-12-10T06:26:43.880Z,1.00
2023-12-10T06:29:13.437Z,1.00
2023-12-10T06:31:41.555Z,1.00
2023-12-10T06:34:10.023Z,1.10
2023-12-10T06:36:38.579Z,1.00
2023-12-10T06:39:07.866Z,1.00
2023-12-10T06:41:36.249Z,1.00
2023-12-10T06:44:04.478Z,1.10
2023-12-10T06:46:33.870Z,1.00
2023-12-10T06:49:02.125Z,1.10
2023-12-10T06:51:30.230Z,1.10
2023-12-10T06:53:58.343Z,1.10
2023-12-10T06:56:26.428Z,1.00
2023-12-10T06:58:54.515Z,1.00
2023-12-10T07:01:22.711Z,1.10
2023-12-10T07:03:52.200Z,1.10
2023-12-10T07:06:20.353Z,1.10
2023-12-10T07:08:48.480Z,1.10
2023-12-10T07:11:16.588Z,1.10
2023-12-10T07:13:44.673Z,1.10
2023-12-10T07:16:12.768Z,1.20
2023-12-10T07:18:41.394Z,1.10
2023-12-10T07:21:10.898Z,1.20
2023-12-10T07:23:39.167Z,1.20
2023-12-10T07:26:07.574Z,1.20
2023-12-10T07:28:35.657Z,1.20
2023-12-10T07:31:03.901Z,1.20
2023-12-10T07:33:32.342Z,1.20
2023-12-10T07:36:00.558Z,1.20
2023-12-10T07:38:29.951Z,1.20
2023-12-10T07:40:58.075Z,1.20
2023-12-10T07:43:26.154Z,1.30
2023-12-10T07:45:54.299Z,1.30
2023-12-10T07:48:23.022Z,1.30
2023-12-10T07:50:51.592Z,1.30
2023-12-10T07:53:20.115Z,1.30
2023-12-10T07:55:49.576Z,1.30
2023-12-10T07:58:17.640Z,1.40
2023-12-10T08:00:48.394Z,1.40
2023-12-10T08:03:17.013Z,1.30
2023-12-10T08:05:45.164Z,1.40
2023-12-10T08:08:13.286Z,1.40
2023-12-10T08:10:41.797Z,1.40
2023-12-10T08:13:11.289Z,1.40
2023-12-10T08:15:39.406Z,1.40
2023-12-10T08:18:07.960Z,1.50
2023-12-10T08:20:36.774Z,1.50
2023-12-10T08:23:04.842Z,1.50
2023-12-10T08:25:32.925Z,1.50
2023-12-10T08:28:01.155Z,1.50
2023-12-10T08:30:30.740Z,1.50
2023-12-10T08:32:58.911Z,1.50
2023-12-10T08:35:27.202Z,1.50
2023-12-10T08:37:55.253Z,1.60
2023-12-10T08:40:23.332Z,1.60
2023-12-10T08:42:51.471Z,1.60
2023-12-10T08:45:20.332Z,1.60
2023-12-10T08:47:49.832Z,1.60
2023-12-10T08:50:18.162Z,1.60
2023-12-10T08:52:46.234Z,1.60
2023-12-10T08:55:14.481Z,1.70
2023-12-10T08:57:42.631Z,1.70
2023-12-10T09:00:12.082Z,1.70
2023-12-10T09:02:40.121Z,1.70
2023-12-10T09:05:10.505Z,1.70
2023-12-10T09:07:38.696Z,1.70
2023-12-10T09:10:12.106Z,1.70
2023-12-10T09:12:41.468Z,1.70
2023-12-10T09:15:10.926Z,1.80
2023-12-10T09:17:39.250Z,1.80
2023-12-10T09:20:11.092Z,1.80
2023-12-10T09:22:39.352Z,1.80
2023-12-10T09:25:07.747Z,1.80
2023-12-10T09:27:35.917Z,1.90
2023-12-10T09:30:04.538Z,1.90
2023-12-10T09:32:33.044Z,1.90
2023-12-10T09:35:02.668Z,1.90
2023-12-10T09:37:32.233Z,1.90
2023-12-10T09:40:00.793Z,1.90
2023-12-10T09:42:29.188Z,1.90
2023-12-10T09:44:57.587Z,2.00
2023-12-10T09:47:27.214Z,1.90
2023-12-10T09:49:56.608Z,1.90
2023-12-10T09:52:25.198Z,1.90
2023-12-10T09:54:55.275Z,1.90
2023-12-10T09:57:23.377Z,1.90
2023-12-10T09:59:51.624Z,1.90
2023-12-10T10:02:19.956Z,1.90
2023-12-10T10:04:48.753Z,1.90
2023-12-10T10:07:16.931Z,1.90
2023-12-10T10:09:45.857Z,1.90
2023-12-10T10:12:16.135Z,1.90
2023-12-10T10:14:56.384Z,1.90
2023-12-10T10:17:28.735Z,1.90
2023-12-10T10:19:57.648Z,1.90
2023-12-10T10:22:26.121Z,1.90
2023-12-10T10:24:54.691Z,1.80
2023-12-10T10:27:24.575Z,1.80
2023-12-10T10:29:55.094Z,1.80
2023-12-10T10:32:24.946Z,1.90
2023-12-10T10:34:53.572Z,1.90
2023-12-10T10:37:21.702Z,1.80
2023-12-10T10:39:51.231Z,1.90
2023-12-10T10:42:20.110Z,1.90
2023-12-10T10:44:49.671Z,1.90
2023-12-10T10:47:19.995Z,1.90
2023-12-10T10:50:19.316Z,1.90
2023-12-10T10:52:42.190Z,1.90
2023-12-10T10:55:11.922Z,1.90
2023-12-10T10:57:40.482Z,1.90
2023-12-10T11:00:43.719Z,1.90
2023-12-10T11:03:11.906Z,1.90
2023-12-10T11:05:41.233Z,1.90
2023-12-10T11:08:10.121Z,1.90
2023-12-10T11:10:44.192Z,1.90
2023-12-10T11:13:12.703Z,1.90
2023-12-10T11:15:41.319Z,1.90
2023-12-10T11:18:12.906Z,2.00
2023-12-10T11:20:42.997Z,2.00
2023-12-10T11:23:12.989Z,2.00
2023-12-10T11:25:42.502Z,2.00
2023-12-10T11:28:12.973Z,2.00
2023-12-10T11:30:42.385Z,2.00
2023-12-10T11:33:13.309Z,2.00
2023-12-10T11:35:41.663Z,2.00
2023-12-10T11:38:10.558Z,2.00
2023-12-10T11:40:39.091Z,2.00
2023-12-10T11:43:09.026Z,2.00
2023-12-10T11:45:39.389Z,2.00
2023-12-10T11:48:16.697Z,2.10
2023-12-10T11:50:49.756Z,2.10
2023-12-10T11:53:18.620Z,2.10
2023-12-10T11:55:46.721Z,2.10
2023-12-10T11:58:14.879Z,2.00
2023-12-10T12:00:58.605Z,2.00
2023-12-10T12:03:26.892Z,2.00
2023-12-10T12:05:56.672Z,1.90
2023-12-10T12:08:27.999Z,1.90
2023-12-10T12:10:58.159Z,1.90
2023-12-10T12:13:26.937Z,1.90
2023-12-10T12:15:55.124Z,1.90
2023-12-10T12:18:26.402Z,1.90
2023-12-10T12:20:56.179Z,1.90
2023-12-10T12:23:24.296Z,1.90
2023-12-10T12:25:52.755Z,1.80
2023-12-10T12:28:21.477Z,1.80
2023-12-10T12:30:49.714Z,1.80
2023-12-10T12:33:18.251Z,1.80
2023-12-10T12:35:46.467Z,1.80
2023-12-10T12:38:15.920Z,1.80
2023-12-10T12:40:43.975Z,1.70
2023-12-10T12:43:12.142Z,1.70
2023-12-10T12:45:40.249Z,1.70
2023-12-10T12:48:08.416Z,1.60
2023-12-10T12:50:36.523Z,1.60
2023-12-10T12:53:04.581Z,1.60
2023-12-10T12:55:34.022Z,1.70
2023-12-10T12:58:02.766Z,1.70
2023-12-10T13:00:30.896Z,1.70
2023-12-10T13:03:00.468Z,1.60
2023-12-10T13:05:28.601Z,1.60
2023-12-10T13:07:56.873Z,1.60
2023-12-10T13:10:24.971Z,1.60
2023-12-10T13:12:54.484Z,1.60
2023-12-10T13:15:22.669Z,1.60
2023-12-10T13:17:50.923Z,1.60
2023-12-10T13:20:19.519Z,1.60
2023-12-10T13:22:47.621Z,1.60
2023-12-10T13:25:15.973Z,1.50
2023-12-10T13:27:44.245Z,1.50
2023-12-10T13:30:15.118Z,1.50
2023-12-10T13:32:43.471Z,1.50
2023-12-10T13:35:11.731Z,1.40
2023-12-10T13:37:39.848Z,1.50
2023-12-10T13:40:11.220Z,1.50
2023-12-10T13:42:39.461Z,1.50
2023-12-10T13:45:08.077Z,1.50
2023-12-10T13:47:37.739Z,1.50
2023-12-10T13:50:07.183Z,1.40
2023-12-10T13:52:35.275Z,1.40
2023-12-10T13:55:03.527Z,1.40
2023-12-10T13:57:34.355Z,1.40
2023-12-10T14:00:02.673Z,1.40
2023-12-10T14:02:33.021Z,1.40
2023-12-10T14:05:02.711Z,1.40
2023-12-10T14:07:32.038Z,1.40
2023-12-10T14:10:00.469Z,1.40
2023-12-10T14:12:28.809Z,1.40
2023-12-10T14:14:56.905Z,1.40
2023-12-10T14:17:24.972Z,1.30
2023-12-10T14:19:53.295Z,1.30
2023-12-10T14:22:22.736Z,1.30
2023-12-10T14:24:50.980Z,1.30
2023-12-10T14:27:19.091Z,1.30
2023-12-10T14:29:47.165Z,1.30
2023-12-10T14:32:15.930Z,1.20
2023-12-10T14:34:44.512Z,1.20
2023-12-10T14:37:12.828Z,1.20
2023-12-10T14:39:43.282Z,1.30
2023-12-10T14:42:11.471Z,1.20
2023-12-10T14:44:39.614Z,1.20
2023-12-10T14:47:07.712Z,1.20
2023-12-10T14:49:36.090Z,1.20
2023-12-10T14:52:04.412Z,1.20
2023-12-10T14:54:32.558Z,1.20
2023-12-10T14:57:02.005Z,1.20
2023-12-10T14:59:30.137Z,1.20
2023-12-10T15:02:06.061Z,1.10
2023-12-10T15:04:39.938Z,1.10
2023-12-10T15:07:10.143Z,1.10
2023-12-10T15:09:39.778Z,1.10
2023-12-10T15:12:09.526Z,1.10
2023-12-10T15:14:37.666Z,1.10
2023-12-10T15:17:07.582Z,1.10
2023-12-10T15:19:43.223Z,1.10
2023-12-10T15:22:13.557Z,1.10
2023-12-10T15:24:41.685Z,1.10
2023-12-10T15:27:11.114Z,1.10
2023-12-10T15:29:39.164Z,1.10
2023-12-10T15:32:07.321Z,1.10
2023-12-10T15:34:35.522Z,1.10
2023-12-10T15:37:05.092Z,1.10
2023-12-10T15:39:33.322Z,1.10
2023-12-10T15:42:01.503Z,1.10
2023-12-10T15:44:30.945Z,1.10
2023-12-10T15:46:59.000Z,1.10
2023-12-10T15:49:27.199Z,1.10
2023-12-10T15:51:54.346Z,1.10
2023-12-10T15:54:22.512Z,1.20
2023-12-10T15:56:50.550Z,1.10
2023-12-10T15:59:18.701Z,1.10
2023-12-10T16:01:48.205Z,1.20
2023-12-10T16:04:16.528Z,1.20
2023-12-10T16:06:44.931Z,1.20
2023-12-10T16:09:13.118Z,1.20
2023-12-10T16:11:41.164Z,1.10
2023-12-10T16:14:09.235Z,1.10
2023-12-10T16:16:37.317Z,1.10
2023-12-10T16:19:06.918Z,1.20
2023-12-10T16:21:35.300Z,1.20
2023-12-10T16:24:05.950Z,1.20
2023-12-10T16:26:37.644Z,1.20
2023-12-10T16:29:06.214Z,1.20
2023-12-10T16:31:34.882Z,1.20
2023-12-10T16:34:03.937Z,1.20
2023-12-10T16:36:33.468Z,1.20
2023-12-10T16:39:01.553Z,1.20
2023-12-10T16:41:29.638Z,1.20
2023-12-10T16:43:59.949Z,1.20
2023-12-10T16:46:28.160Z,1.20
2023-12-10T16:48:56.270Z,1.20
2023-12-10T16:51:24.565Z,1.20
2023-12-10T16:53:53.968Z,1.20
2023-12-10T16:56:22.035Z,1.20
2023-12-10T16:58:50.160Z,1.30
2023-12-10T17:01:18.607Z,1.30
2023-12-10T17:03:46.748Z,1.30
2023-12-10T17:06:14.947Z,1.30
2023-12-10T17:08:45.036Z,1.30
2023-12-10T17:11:15.330Z,1.20
2023-12-10T17:13:43.476Z,1.20
2023-12-10T17:16:11.588Z,1.20
2023-12-10T17:18:39.793Z,1.20
2023-12-10T17:21:08.227Z,1.20
2023-12-10T17:23:36.306Z,1.20
2023-12-10T17:26:04.744Z,1.20
2023-12-10T17:28:35.329Z,1.20
2023-12-10T17:31:03.482Z,1.20
2023-12-10T17:33:31.740Z,1.20
2023-12-10T17:36:00.058Z,1.20
2023-12-10T17:38:29.285Z,1.20
2023-12-10T17:40:57.415Z,1.20
2023-12-10T17:43:26.133Z,1.20
2023-12-10T17:45:55.572Z,1.20
2023-12-10T17:48:23.823Z,1.30
2023-12-10T17:50:52.635Z,1.30
2023-12-10T17:53:20.809Z,1.30
2023-12-10T17:55:48.960Z,1.20
2023-12-10T17:58:17.040Z,1.20
2023-12-10T18:00:46.456Z,1.20
2023-12-10T18:03:16.081Z,1.20
2023-12-10T18:05:47.959Z,1.20
2023-12-10T18:08:17.390Z,1.20
2023-12-10T18:10:45.892Z,1.20
2023-12-10T18:13:14.085Z,1.20
2023-12-10T18:15:42.229Z,1.20
2023-12-10T18:18:10.473Z,1.20
2023-12-10T18:20:39.866Z,1.20
2023-12-10T18:23:08.056Z,1.20
2023-12-10T18:25:36.214Z,1.10
2023-12-10T18:28:04.399Z,1.10
2023-12-10T18:30:32.691Z,1.10
2023-12-10T18:33:00.970Z,1.10
2023-12-10T18:35:29.055Z,1.10
2023-12-10T18:37:58.507Z,1.10
2023-12-10T18:40:28.829Z,1.10
2023-12-10T18:43:01.114Z,1.10
2023-12-10T18:45:29.494Z,1.10
2023-12-10T18:47:57.658Z,1.10
2023-12-10T18:50:25.858Z,1.10
2023-12-10T18:52:54.989Z,1.10
2023-12-10T18:55:24.873Z,1.10
2023-12-10T18:57:53.011Z,1.10
2023-12-10T19:00:21.646Z,1.10
2023-12-10T19:02:50.113Z,1.10
2023-12-10T19:05:19.337Z,1.10
2023-12-10T19:07:47.763Z,1.20
2023-12-10T19:10:16.420Z,1.10
2023-12-10T19:12:46.153Z,1.10
2023-12-10T19:15:14.323Z,1.10
2023-12-10T19:17:42.678Z,1.10
2023-12-10T19:20:22.554Z,1.10
2023-12-10T19:22:51.112Z,1.10
2023-12-10T19:25:19.906Z,1.00
2023-12-10T19:27:49.481Z,1.00
2023-12-10T19:30:17.767Z,1.00
2023-12-10T19:32:47.147Z,1.00
2023-12-10T19:35:15.339Z,1.00
2023-12-10T19:37:43.418Z,1.00
2023-12-10T19:40:12.232Z,1.00
2023-12-10T19:42:40.501Z,1.00
2023-12-10T19:45:11.147Z,1.00
2023-12-10T19:47:39.364Z,1.00
2023-12-10T19:50:08.675Z,1.00
2023-12-10T19:52:36.894Z,1.00
2023-12-10T19:55:05.682Z,1.00
2023-12-10T19:57:33.952Z,1.00
2023-12-10T20:00:02.891Z,0.90
2023-12-10T20:02:40.943Z,0.90
2023-12-10T20:05:10.301Z,0.90
2023-12-10T20:07:38.760Z,0.90
2023-12-10T20:10:07.852Z,0.90
2023-12-10T20:12:36.148Z,0.90
2023-12-10T20:15:05.600Z,0.80
2023-12-10T20:17:34.306Z,0.80
2023-12-10T20:20:04.687Z,0.80
2023-12-10T20:22:32.867Z,0.80
2023-12-10T20:25:03.220Z,0.80
2023-12-10T20:27:32.655Z,0.80
2023-12-10T20:30:02.233Z,0.80
2023-12-10T20:32:30.403Z,0.70
2023-12-10T20:34:59.697Z,0.70
2023-12-10T20:37:29.454Z,0.70
2023-12-10T20:39:58.975Z,0.70
2023-12-10T20:42:27.764Z,0.70
2023-12-10T20:44:56.444Z,0.70
2023-12-10T20:47:24.577Z,0.70
2023-12-10T20:49:52.840Z,0.80
2023-12-10T20:52:21.994Z,0.70
2023-12-10T20:54:52.142Z,0.70
2023-12-10T20:57:20.277Z,0.70
2023-12-10T20:59:47.454Z,0.70
2023-12-10T21:02:15.594Z,0.70
2023-12-10T21:04:45.131Z,0.70
2023-12-10T21:07:13.441Z,0.70
2023-12-10T21:09:43.713Z,0.60
2023-12-10T21:12:13.202Z,0.60
2023-12-10T21:14:42.654Z,0.60
2023-12-10T21:17:13.089Z,0.60
2023-12-10T21:19:43.054Z,0.60
2023-12-10T21:22:11.297Z,0.60
2023-12-10T21:24:39.569Z,0.60
2023-12-10T21:27:07.696Z,0.60
2023-12-10T21:29:37.189Z,0.60
2023-12-10T21:32:05.947Z,0.70
2023-12-10T21:34:34.205Z,0.70
2023-12-10T21:37:02.475Z,0.70
2023-12-10T21:39:30.654Z,0.70
2023-12-10T21:41:59.257Z,0.70
2023-12-10T21:44:27.547Z,0.70
2023-12-10T21:46:57.074Z,0.70
2023-12-10T21:49:25.845Z,0.70
2023-12-10T21:51:54.006Z,0.70
2023-12-10T21:54:25.935Z,0.70
2023-12-10T21:56:54.615Z,0.70
2023-12-10T21:59:23.121Z,0.70
2023-12-10T22:01:51.339Z,0.70
2023-12-10T22:04:20.933Z,0.70
2023-12-10T22:06:49.067Z,0.70
2023-12-10T22:09:17.167Z,0.60
2023-12-10T22:11:45.245Z,0.70
2023-12-10T22:14:13.304Z,0.70
2023-12-10T22:16:41.449Z,0.70
2023-12-10T22:19:10.001Z,0.70
2023-12-10T22:21:40.117Z,0.70
2023-12-10T22:24:08.344Z,0.70
2023-12-10T22:26:36.399Z,0.70
2023-12-10T22:29:04.483Z,0.70
2023-12-10T22:31:32.588Z,0.70
2023-12-10T22:34:02.599Z,0.70
2023-12-10T22:36:32.747Z,0.80
2023-12-10T22:39:03.991Z,0.80
2023-12-10T22:41:32.126Z,0.80
2023-12-10T22:44:00.215Z,0.80
2023-12-10T22:46:28.305Z,0.80
2023-12-10T22:48:56.917Z,0.80
2023-12-10T22:51:25.084Z,0.80
2023-12-10T22:53:54.007Z,0.80
2023-12-10T22:56:23.707Z,0.80
2023-12-10T22:58:51.774Z,0.80
2023-12-10T23:01:20.916Z,0.90
2023-12-10T23:03:50.257Z,0.90
2023-12-10T23:06:18.394Z,0.90
2023-12-10T23:08:46.517Z,0.80
2023-12-10T23:11:14.613Z,0.80
2023-12-10T23:13:44.073Z,0.80
2023-12-10T23:16:12.987Z,0.90
2023-12-10T23:18:41.715Z,0.90
2023-12-10T23:21:10.026Z,0.90
2023-12-10T23:23:38.129Z,0.90
2023-12-10T23:26:07.411Z,0.90
2023-12-10T23:28:36.076Z,0.90
2023-12-10T23:31:05.790Z,0.90
2023-12-10T23:33:34.093Z,0.90
2023-12-10T23:36:02.285Z,0.90
2023-12-10T23:38:30.333Z,0.90
2023-12-10T23:40:58.414Z,0.90
2023-12-10T23:43:26.528Z,0.90
2023-12-10T23:45:54.874Z,0.90
2023-12-10T23:48:24.319Z,1.00
2023-12-10T23:50:52.468Z,1.00
2023-12-10T23:53:20.545Z,1.00
2023-12-10T23:55:48.625Z,1.00
2023-12-10T23:58:18.716Z,1.00
